createdAt,value
2022-08-27T00:00:09.249Z,22.04
2022-08-27T00:01:08.708Z,21.97
2022-08-27T00:02:08.634Z,21.95
2022-08-27T00:03:08.007Z,21.92
2022-08-27T00:04:08.167Z,21.93
2022-08-27T00:05:07.715Z,21.89
2022-08-27T00:06:07.867Z,21.88
2022-08-27T00:07:08.276Z,21.88
2022-08-27T00:09:07.633Z,21.86
2022-08-27T00:10:07.781Z,21.86
2022-08-27T00:11:08.022Z,21.85
2022-08-27T00:12:07.945Z,21.87
2022-08-27T00:13:08.044Z,21.88
2022-08-27T00:14:08.073Z,21.90
2022-08-27T00:15:07.681Z,21.95
2022-08-27T00:16:07.747Z,21.96
2022-08-27T00:17:07.826Z,21.95
2022-08-27T00:18:07.981Z,21.94
2022-08-27T00:19:07.671Z,21.97
2022-08-27T00:20:07.723Z,21.97
2022-08-27T00:21:07.953Z,21.96
2022-08-27T00:22:08.075Z,21.98
2022-08-27T00:23:07.885Z,22.00
2022-08-27T00:24:08.161Z,22.00
2022-08-27T00:25:07.620Z,22.01
2022-08-27T00:26:07.734Z,22.03
2022-08-27T00:27:08.101Z,21.98
2022-08-27T00:28:07.933Z,21.97
2022-08-27T00:29:07.471Z,21.98
2022-08-27T00:30:07.863Z,21.98
2022-08-27T00:31:08.225Z,21.98
2022-08-27T00:32:07.824Z,21.99
2022-08-27T00:33:07.748Z,22.00
2022-08-27T00:34:07.820Z,21.99
2022-08-27T00:35:07.756Z,21.98
2022-08-27T00:36:07.860Z,21.97
2022-08-27T00:37:07.560Z,21.98
2022-08-27T00:38:07.718Z,21.95
2022-08-27T00:39:07.949Z,21.94
2022-08-27T00:40:08.091Z,21.97
2022-08-27T00:41:07.646Z,21.96
2022-08-27T00:42:07.403Z,21.99
2022-08-27T00:43:07.499Z,22
2022-08-27T00:44:07.583Z,21.95
2022-08-27T00:45:07.853Z,21.95
2022-08-27T00:46:07.911Z,21.94
2022-08-27T00:47:08.182Z,21.90
2022-08-27T00:48:07.492Z,21.90
2022-08-27T00:49:07.968Z,21.88
2022-08-27T00:50:08.478Z,21.86
2022-08-27T00:51:07.699Z,21.85
2022-08-27T00:52:07.912Z,21.82
2022-08-27T00:53:08.168Z,21.80
2022-08-27T00:54:08.148Z,21.80
2022-08-27T00:55:08.152Z,21.80
2022-08-27T00:56:07.625Z,21.79
2022-08-27T00:57:07.563Z,21.80
2022-08-27T00:58:07.571Z,21.83
2022-08-27T00:59:07.978Z,21.80
2022-08-27T01:00:08.441Z,21.80
2022-08-27T01:01:07.892Z,21.78
2022-08-27T01:02:08.312Z,21.79
2022-08-27T01:03:07.673Z,21.81
2022-08-27T01:04:07.911Z,21.82
2022-08-27T01:05:08.114Z,21.79
2022-08-27T01:06:07.592Z,21.79
2022-08-27T01:07:07.456Z,21.78
2022-08-27T01:08:07.341Z,21.80
2022-08-27T01:09:07.841Z,21.82
2022-08-27T01:10:08.035Z,21.83
2022-08-27T01:11:08.312Z,21.85
2022-08-27T01:12:07.339Z,21.87
2022-08-27T01:13:07.389Z,21.86
2022-08-27T01:14:08.150Z,21.83
2022-08-27T01:15:08.224Z,21.86
2022-08-27T01:16:08.054Z,21.89
2022-08-27T01:17:07.764Z,21.92
2022-08-27T01:18:07.893Z,21.91
2022-08-27T01:19:07.649Z,21.88
2022-08-27T01:20:07.880Z,21.86
2022-08-27T01:21:07.596Z,21.83
2022-08-27T01:22:07.526Z,21.85
2022-08-27T01:23:07.651Z,21.88
2022-08-27T01:24:07.868Z,21.89
2022-08-27T01:25:08.236Z,21.90
2022-08-27T01:26:07.764Z,21.90
2022-08-27T01:27:08.138Z,21.90
2022-08-27T01:28:07.900Z,21.90
2022-08-27T01:29:07.208Z,21.88
2022-08-27T01:30:08.547Z,21.92
2022-08-27T01:31:07.787Z,21.91
2022-08-27T01:32:08.058Z,21.89
2022-08-27T01:33:07.960Z,21.88
2022-08-27T01:34:07.318Z,21.89
2022-08-27T01:35:08.269Z,21.94
2022-08-27T01:36:07.491Z,21.93
2022-08-27T01:37:07.366Z,21.91
2022-08-27T01:38:09.365Z,21.90
2022-08-27T01:39:08.013Z,21.87
2022-08-27T01:40:07.631Z,21.87
2022-08-27T01:41:07.853Z,21.87
2022-08-27T01:42:07.898Z,21.87
2022-08-27T01:43:07.734Z,21.87
2022-08-27T01:44:07.665Z,21.85
2022-08-27T01:45:08.187Z,21.86
2022-08-27T01:46:07.545Z,21.86
2022-08-27T01:47:07.627Z,21.87
2022-08-27T01:48:07.603Z,21.86
2022-08-27T01:49:07.664Z,21.85
2022-08-27T01:50:07.780Z,21.81
2022-08-27T01:51:08.246Z,21.81
2022-08-27T01:52:07.399Z,21.83
2022-08-27T01:53:08.140Z,21.82
2022-08-27T01:54:07.650Z,21.81
2022-08-27T01:55:07.891Z,21.80
2022-08-27T01:56:07.875Z,21.81
2022-08-27T01:57:08.112Z,21.83
2022-08-27T01:58:07.988Z,21.83
2022-08-27T01:59:07.842Z,21.83
2022-08-27T02:00:08.477Z,21.83
2022-08-27T02:01:07.776Z,21.85
2022-08-27T02:02:08.332Z,21.80
2022-08-27T02:03:07.558Z,21.82
2022-08-27T02:04:07.635Z,21.83
2022-08-27T02:05:07.961Z,21.85
2022-08-27T02:06:08.022Z,21.86
2022-08-27T02:07:08.127Z,21.85
2022-08-27T02:08:08.281Z,21.83
2022-08-27T02:09:07.602Z,21.86
2022-08-27T02:10:07.682Z,21.90
2022-08-27T02:11:07.694Z,21.92
2022-08-27T02:12:08.020Z,21.91
2022-08-27T02:13:07.856Z,21.87
2022-08-27T02:14:07.893Z,21.85
2022-08-27T02:15:07.803Z,21.83
2022-08-27T02:16:07.976Z,21.82
2022-08-27T02:17:08.151Z,21.84
2022-08-27T02:18:07.737Z,21.85
2022-08-27T02:19:09.794Z,21.88
2022-08-27T02:20:07.811Z,21.88
2022-08-27T02:21:07.855Z,21.90
2022-08-27T02:22:07.952Z,21.86
2022-08-27T02:23:08.104Z,21.79
2022-08-27T02:24:07.645Z,21.77
2022-08-27T02:25:10.297Z,21.72
2022-08-27T02:26:07.926Z,21.73
2022-08-27T02:27:08.094Z,21.71
2022-08-27T02:28:08.452Z,21.70
2022-08-27T02:29:07.964Z,21.69
2022-08-27T02:30:08.177Z,21.70
2022-08-27T02:31:07.475Z,21.69
2022-08-27T02:32:07.679Z,21.68
2022-08-27T02:33:08.110Z,21.70
2022-08-27T02:34:08.001Z,21.69
2022-08-27T02:35:08.628Z,21.68
2022-08-27T02:36:08.118Z,21.68
2022-08-27T02:37:07.381Z,21.61
2022-08-27T02:38:08.316Z,21.60
2022-08-27T02:39:08.044Z,21.61
2022-08-27T02:40:08.156Z,21.62
2022-08-27T02:41:07.379Z,21.63
2022-08-27T02:42:07.691Z,21.66
2022-08-27T02:43:08.231Z,21.69
2022-08-27T02:44:10.401Z,21.69
2022-08-27T02:45:07.461Z,21.67
2022-08-27T02:46:07.591Z,21.65
2022-08-27T02:47:07.756Z,21.67
2022-08-27T02:48:07.967Z,21.69
2022-08-27T02:49:07.712Z,21.73
2022-08-27T02:50:08.304Z,21.72
2022-08-27T02:51:07.706Z,21.75
2022-08-27T02:52:07.778Z,21.75
2022-08-27T02:53:08.006Z,21.77
2022-08-27T02:54:08.538Z,21.78
2022-08-27T02:55:08.209Z,21.77
2022-08-27T02:56:08.096Z,21.78
2022-08-27T02:57:08.151Z,21.77
2022-08-27T02:58:08.480Z,21.80
2022-08-27T02:59:07.773Z,21.81
2022-08-27T03:00:08.515Z,21.82
2022-08-27T03:01:11.384Z,21.83
2022-08-27T03:02:08.264Z,21.84
2022-08-27T03:03:07.963Z,21.82
2022-08-27T03:04:08.329Z,21.82
2022-08-27T03:05:07.703Z,21.80
2022-08-27T03:06:07.567Z,21.72
2022-08-27T03:07:07.829Z,21.68
2022-08-27T03:08:07.721Z,21.66
2022-08-27T03:09:08.223Z,21.64
2022-08-27T03:10:08.465Z,21.67
2022-08-27T03:11:07.897Z,21.70
2022-08-27T03:12:08.129Z,21.74
2022-08-27T03:13:08.144Z,21.76
2022-08-27T03:14:08.246Z,21.78
2022-08-27T03:15:07.469Z,21.79
2022-08-27T03:16:07.526Z,21.79
2022-08-27T03:17:07.996Z,21.80
2022-08-27T03:18:07.532Z,21.80
2022-08-27T03:19:08.007Z,21.79
2022-08-27T03:20:07.996Z,21.78
2022-08-27T03:21:08.008Z,21.74
2022-08-27T03:22:07.816Z,21.73
2022-08-27T03:23:07.805Z,21.67
2022-08-27T03:24:11.524Z,21.67
2022-08-27T03:25:07.736Z,21.65
2022-08-27T03:26:07.808Z,21.61
2022-08-27T03:27:07.599Z,21.60
2022-08-27T03:28:22.498Z,21.59
2022-08-27T03:29:07.774Z,21.55
2022-08-27T03:30:08.635Z,21.52
2022-08-27T03:31:08.577Z,21.51
2022-08-27T03:32:07.654Z,21.50
2022-08-27T03:33:07.812Z,21.47
2022-08-27T03:34:07.835Z,21.50
2022-08-27T03:35:07.888Z,21.47
2022-08-27T03:36:08.107Z,21.45
2022-08-27T03:37:07.424Z,21.43
2022-08-27T03:38:07.794Z,21.39
2022-08-27T03:39:08.494Z,21.36
2022-08-27T03:40:08.105Z,21.31
2022-08-27T03:41:07.582Z,21.29
2022-08-27T03:42:07.677Z,21.30
2022-08-27T03:43:07.628Z,21.28
2022-08-27T03:44:07.687Z,21.29
2022-08-27T03:45:08.600Z,21.26
2022-08-27T03:46:08.111Z,21.22
2022-08-27T03:47:08.225Z,21.21
2022-08-27T03:48:07.620Z,21.20
2022-08-27T03:49:07.867Z,21.20
2022-08-27T03:50:12.964Z,21.17
2022-08-27T03:51:08.199Z,21.14
2022-08-27T03:52:07.389Z,21.11
2022-08-27T03:53:07.565Z,21.12
2022-08-27T03:54:07.803Z,21.18
2022-08-27T03:55:07.848Z,21.15
2022-08-27T03:56:08.078Z,21.16
2022-08-27T03:57:07.458Z,21.15
2022-08-27T03:58:07.771Z,21.13
2022-08-27T03:59:07.562Z,21.10
2022-08-27T04:00:08.281Z,21.12
2022-08-27T04:01:08.019Z,21.16
2022-08-27T04:02:07.628Z,21.18
2022-08-27T04:03:08.388Z,21.19
2022-08-27T04:04:07.776Z,21.21
2022-08-27T04:05:07.982Z,21.23
2022-08-27T04:06:08.051Z,21.22
2022-08-27T04:07:08.338Z,21.20
2022-08-27T04:08:07.676Z,21.20
2022-08-27T04:09:08.391Z,21.19
2022-08-27T04:10:07.758Z,21.18
2022-08-27T04:11:08.254Z,21.19
2022-08-27T04:12:07.433Z,21.20
2022-08-27T04:13:07.730Z,21.22
2022-08-27T04:14:26.107Z,21.23
2022-08-27T04:15:08.143Z,21.25
2022-08-27T04:16:07.626Z,21.25
2022-08-27T04:17:07.862Z,21.23
2022-08-27T04:18:08.184Z,21.22
2022-08-27T04:19:07.908Z,21.22
2022-08-27T04:20:33.883Z,21.22
2022-08-27T04:21:07.878Z,21.20
2022-08-27T04:22:08.514Z,21.14
2022-08-27T04:23:08.036Z,21.12
2022-08-27T04:24:08.172Z,21.09
2022-08-27T04:25:11.534Z,21.03
2022-08-27T04:26:08.028Z,21.01
2022-08-27T04:27:08.417Z,20.97
2022-08-27T04:28:08.051Z,20.92
2022-08-27T04:29:07.681Z,20.88
2022-08-27T04:30:08.158Z,20.85
2022-08-27T04:31:12.921Z,20.86
2022-08-27T04:32:08.000Z,20.86
2022-08-27T04:33:08.144Z,20.86
2022-08-27T04:34:07.823Z,20.86
2022-08-27T04:35:08.160Z,20.89
2022-08-27T04:36:07.677Z,20.92
2022-08-27T04:37:08.152Z,20.94
2022-08-27T04:38:07.815Z,20.95
2022-08-27T04:39:08.316Z,20.95
2022-08-27T04:40:08.035Z,20.95
2022-08-27T04:41:07.778Z,20.92
2022-08-27T04:42:08.223Z,20.90
2022-08-27T04:43:07.855Z,20.88
2022-08-27T04:44:08.055Z,20.85
2022-08-27T04:45:08.356Z,20.83
2022-08-27T04:46:07.969Z,20.80
2022-08-27T04:47:07.969Z,20.76
2022-08-27T04:48:08.056Z,20.73
2022-08-27T04:49:10.208Z,20.68
2022-08-27T04:50:07.999Z,20.69
2022-08-27T04:51:08.165Z,20.66
2022-08-27T04:52:07.733Z,20.64
2022-08-27T04:53:07.999Z,20.58
2022-08-27T04:54:08.203Z,20.60
2022-08-27T04:55:07.644Z,20.58
2022-08-27T04:56:08.063Z,20.64
2022-08-27T04:57:08.158Z,20.68
2022-08-27T04:58:07.689Z,20.69
2022-08-27T04:59:08.065Z,20.70
2022-08-27T05:00:08.832Z,20.75
2022-08-27T05:01:07.798Z,20.78
2022-08-27T05:02:08.062Z,20.76
2022-08-27T05:03:08.298Z,20.73
2022-08-27T05:04:07.794Z,20.73
2022-08-27T05:05:07.912Z,20.70
2022-08-27T05:06:07.578Z,20.67
2022-08-27T05:07:07.720Z,20.64
2022-08-27T05:08:08.166Z,20.62
2022-08-27T05:09:07.857Z,20.59
2022-08-27T05:10:08.495Z,20.56
2022-08-27T05:11:08.277Z,20.57
2022-08-27T05:12:07.833Z,20.61
2022-08-27T05:13:07.958Z,20.59
2022-08-27T05:14:08.249Z,20.55
2022-08-27T05:15:07.804Z,20.55
2022-08-27T05:16:08.455Z,20.56
2022-08-27T05:17:08.043Z,20.53
2022-08-27T05:18:07.702Z,20.50
2022-08-27T05:19:08.136Z,20.51
2022-08-27T05:20:08.286Z,20.52
2022-08-27T05:21:07.875Z,20.53
2022-08-27T05:22:08.304Z,20.52
2022-08-27T05:23:07.918Z,20.51
2022-08-27T05:24:08.400Z,20.51
2022-08-27T05:25:08.056Z,20.53
2022-08-27T05:26:07.738Z,20.55
2022-08-27T05:27:08.053Z,20.55
2022-08-27T05:28:08.059Z,20.54
2022-08-27T05:29:07.666Z,20.53
2022-08-27T05:30:08.421Z,20.49
2022-08-27T05:31:07.995Z,20.46
2022-08-27T05:32:08.585Z,20.48
2022-08-27T05:33:08.351Z,20.51
2022-08-27T05:34:10.129Z,20.53
2022-08-27T05:35:07.932Z,20.55
2022-08-27T05:36:08.239Z,20.56
2022-08-27T05:37:08.011Z,20.59
2022-08-27T05:38:08.531Z,20.59
2022-08-27T05:39:08.201Z,20.61
2022-08-27T05:40:07.873Z,20.62
2022-08-27T05:41:08.401Z,20.57
2022-08-27T05:42:07.809Z,20.55
2022-08-27T05:43:08.181Z,20.59
2022-08-27T05:44:36.798Z,20.57
2022-08-27T05:45:08.601Z,20.57
2022-08-27T05:46:08.645Z,20.59
2022-08-27T05:47:08.476Z,20.61
2022-08-27T05:48:08.077Z,20.61
2022-08-27T05:49:07.589Z,20.63
2022-08-27T05:50:08.054Z,20.61
2022-08-27T05:51:07.730Z,20.60
2022-08-27T05:52:07.918Z,20.59
2022-08-27T05:53:08.361Z,20.56
2022-08-27T05:54:08.895Z,20.54
2022-08-27T05:55:07.785Z,20.52
2022-08-27T05:56:08.078Z,20.52
2022-08-27T05:57:08.300Z,20.53
2022-08-27T05:58:08.194Z,20.5
2022-08-27T05:59:07.615Z,20.5
2022-08-27T06:00:09.316Z,20.49
2022-08-27T06:01:10.345Z,20.47
2022-08-27T06:02:08.211Z,20.48
2022-08-27T06:03:07.571Z,20.48
2022-08-27T06:04:08.488Z,20.50
2022-08-27T06:05:08.309Z,20.51
2022-08-27T06:06:08.015Z,20.55
2022-08-27T06:07:08.689Z,20.58
2022-08-27T06:08:08.652Z,20.61
2022-08-27T06:09:13.295Z,20.64
2022-08-27T06:10:07.926Z,20.64
2022-08-27T06:11:13.275Z,20.71
2022-08-27T06:12:07.901Z,20.72
2022-08-27T06:13:08.272Z,20.73
2022-08-27T06:14:08.238Z,20.73
2022-08-27T06:15:08.088Z,20.73
2022-08-27T06:16:08.072Z,20.73
2022-08-27T06:17:07.815Z,20.71
2022-08-27T06:18:07.967Z,20.70
2022-08-27T06:19:15.728Z,20.68
2022-08-27T06:20:08.067Z,20.67
2022-08-27T06:21:08.294Z,20.68
2022-08-27T06:22:10.097Z,20.66
2022-08-27T06:23:07.797Z,20.63
2022-08-27T06:24:08.098Z,20.61
2022-08-27T06:25:08.528Z,20.57
2022-08-27T06:26:07.915Z,20.57
2022-08-27T06:27:08.080Z,20.60
2022-08-27T06:28:08.510Z,20.61
2022-08-27T06:29:08.470Z,20.58
2022-08-27T06:30:08.441Z,20.55
2022-08-27T06:31:08.000Z,20.55
2022-08-27T06:32:08.508Z,20.55
2022-08-27T06:33:07.911Z,20.54
2022-08-27T06:34:08.129Z,20.54
2022-08-27T06:35:08.706Z,20.56
2022-08-27T06:36:08.580Z,20.56
2022-08-27T06:37:07.935Z,20.57
2022-08-27T06:38:07.982Z,20.59
2022-08-27T06:39:07.523Z,20.59
2022-08-27T06:40:07.877Z,20.58
2022-08-27T06:41:08.350Z,20.58
2022-08-27T06:42:08.002Z,20.59
2022-08-27T06:43:08.730Z,20.57
2022-08-27T06:44:08.242Z,20.55
2022-08-27T06:45:08.115Z,20.56
2022-08-27T06:46:07.568Z,20.58
2022-08-27T06:47:08.178Z,20.55
2022-08-27T06:48:07.875Z,20.57
2022-08-27T06:49:08.086Z,20.56
2022-08-27T06:50:08.119Z,20.54
2022-08-27T06:51:08.128Z,20.54
2022-08-27T06:52:08.315Z,20.50
2022-08-27T06:53:07.763Z,20.49
2022-08-27T06:54:08.005Z,20.51
2022-08-27T06:55:08.150Z,20.5
2022-08-27T06:56:08.356Z,20.49
2022-08-27T06:57:07.792Z,20.48
2022-08-27T06:58:08.068Z,20.48
2022-08-27T06:59:11.819Z,20.52
2022-08-27T07:00:08.300Z,20.52
2022-08-27T07:01:07.866Z,20.51
2022-08-27T07:02:08.216Z,20.48
2022-08-27T07:03:07.942Z,20.48
2022-08-27T07:04:08.455Z,20.45
2022-08-27T07:05:08.227Z,20.41
2022-08-27T07:06:07.775Z,20.38
2022-08-27T07:07:08.151Z,20.36
2022-08-27T07:08:08.490Z,20.36
2022-08-27T07:09:08.206Z,20.35
2022-08-27T07:10:08.736Z,20.30
2022-08-27T07:11:08.429Z,20.29
2022-08-27T07:12:08.008Z,20.29
2022-08-27T07:13:08.313Z,20.31
2022-08-27T07:14:07.776Z,20.31
2022-08-27T07:15:08.206Z,20.29
2022-08-27T07:16:08.023Z,20.28
2022-08-27T07:17:10.779Z,20.29
2022-08-27T07:18:08.278Z,20.29
2022-08-27T07:19:08.657Z,20.29
2022-08-27T07:20:08.071Z,20.28
2022-08-27T07:21:08.205Z,20.31
2022-08-27T07:22:07.945Z,20.32
2022-08-27T07:23:10.999Z,20.32
2022-08-27T07:24:08.209Z,20.33
2022-08-27T07:25:08.176Z,20.37
2022-08-27T07:26:08.361Z,20.38
2022-08-27T07:27:08.037Z,20.38
2022-08-27T07:28:08.198Z,20.38
2022-08-27T07:29:07.793Z,20.40
2022-08-27T07:30:08.376Z,20.37
2022-08-27T07:32:08.563Z,20.44
2022-08-27T07:33:08.202Z,20.46
2022-08-27T07:34:08.381Z,20.49
2022-08-27T07:35:07.713Z,20.54
2022-08-27T07:36:07.931Z,20.59
2022-08-27T07:37:07.902Z,20.62
2022-08-27T07:38:08.121Z,20.62
2022-08-27T07:39:08.096Z,20.64
2022-08-27T07:40:08.527Z,20.67
2022-08-27T07:41:08.424Z,20.71
2022-08-27T07:42:07.783Z,20.74
2022-08-27T07:43:08.105Z,20.72
2022-08-27T07:44:08.475Z,20.70
2022-08-27T07:45:08.224Z,20.70
2022-08-27T07:46:08.205Z,20.70
2022-08-27T07:47:08.658Z,20.68
2022-08-27T07:48:08.201Z,20.69
2022-08-27T07:49:08.489Z,20.69
2022-08-27T07:50:08.307Z,20.72
2022-08-27T07:51:07.767Z,20.73
2022-08-27T07:52:08.209Z,20.71
2022-08-27T07:53:08.921Z,20.71
2022-08-27T07:54:07.758Z,20.70
2022-08-27T07:55:08.486Z,20.64
2022-08-27T07:56:07.905Z,20.61
2022-08-27T07:57:08.203Z,20.56
2022-08-27T07:58:11.531Z,20.51
2022-08-27T07:59:08.338Z,20.48
2022-08-27T08:00:09.223Z,20.45
2022-08-27T08:01:08.574Z,20.44
2022-08-27T08:02:08.099Z,20.40
2022-08-27T08:03:08.559Z,20.39
2022-08-27T08:04:07.785Z,20.40
2022-08-27T08:05:08.320Z,20.39
2022-08-27T08:06:08.471Z,20.39
2022-08-27T08:07:07.940Z,20.40
2022-08-27T08:08:07.926Z,20.44
2022-08-27T08:09:10.660Z,20.45
2022-08-27T08:10:07.930Z,20.44
2022-08-27T08:11:08.099Z,20.40
2022-08-27T08:12:07.618Z,20.38
2022-08-27T08:13:07.977Z,20.38
2022-08-27T08:14:08.380Z,20.37
2022-08-27T08:15:08.163Z,20.36
2022-08-27T08:16:08.286Z,20.33
2022-08-27T08:17:08.859Z,20.37
2022-08-27T08:18:08.307Z,20.36
2022-08-27T08:19:08.018Z,20.37
2022-08-27T08:20:30.881Z,20.43
2022-08-27T08:21:08.198Z,20.45
2022-08-27T08:22:08.452Z,20.47
2022-08-27T08:23:09.758Z,20.44
2022-08-27T08:24:08.075Z,20.43
2022-08-27T08:25:08.412Z,20.39
2022-08-27T08:26:08.243Z,20.34
2022-08-27T08:27:08.086Z,20.30
2022-08-27T08:28:08.380Z,20.29
2022-08-27T08:29:08.582Z,20.26
2022-08-27T08:30:08.276Z,20.29
2022-08-27T08:31:07.781Z,20.30
2022-08-27T08:32:08.254Z,20.34
2022-08-27T08:33:07.709Z,20.38
2022-08-27T08:34:08.047Z,20.42
2022-08-27T08:35:08.165Z,20.40
2022-08-27T08:36:07.944Z,20.41
2022-08-27T08:37:08.213Z,20.38
2022-08-27T08:38:08.259Z,20.42
2022-08-27T08:39:07.948Z,20.39
2022-08-27T08:40:08.121Z,20.40
2022-08-27T08:41:07.749Z,20.38
2022-08-27T08:42:07.958Z,20.35
2022-08-27T08:43:08.846Z,20.32
2022-08-27T08:44:16.154Z,20.30
2022-08-27T08:45:08.703Z,20.29
2022-08-27T08:46:07.974Z,20.28
2022-08-27T08:47:08.178Z,20.29
2022-08-27T08:48:07.708Z,20.27
2022-08-27T08:49:08.158Z,20.28
2022-08-27T08:50:08.434Z,20.22
2022-08-27T08:51:08.373Z,20.17
2022-08-27T08:52:07.925Z,20.12
2022-08-27T08:53:07.886Z,20.12
2022-08-27T08:54:08.083Z,20.12
2022-08-27T08:55:08.415Z,20.09
2022-08-27T08:56:07.815Z,20.07
2022-08-27T08:57:08.469Z,20.05
2022-08-27T08:58:08.430Z,20.05
2022-08-27T08:59:08.423Z,20.04
2022-08-27T09:00:08.190Z,20.04
2022-08-27T09:01:07.920Z,20.07
2022-08-27T09:02:12.767Z,20.09
2022-08-27T09:03:08.062Z,20.11
2022-08-27T09:04:08.711Z,20.11
2022-08-27T09:05:08.163Z,20.11
2022-08-27T09:06:08.537Z,20.10
2022-08-27T09:07:07.847Z,20.13
2022-08-27T09:08:31.932Z,20.15
2022-08-27T09:09:07.484Z,20.15
2022-08-27T09:10:08.178Z,20.17
2022-08-27T09:11:07.853Z,20.16
2022-08-27T09:12:07.881Z,20.17
2022-08-27T09:13:08.140Z,20.18
2022-08-27T09:14:11.508Z,20.15
2022-08-27T09:15:09.307Z,20.20
2022-08-27T09:16:08.113Z,20.18
2022-08-27T09:17:11.457Z,20.16
2022-08-27T09:18:08.463Z,20.18
2022-08-27T09:19:07.926Z,20.19
2022-08-27T09:20:07.687Z,20.14
2022-08-27T09:21:09.027Z,20.12
2022-08-27T09:22:08.193Z,20.11
2022-08-27T09:23:07.923Z,20.09
2022-08-27T09:24:08.357Z,20.04
2022-08-27T09:25:07.906Z,20.04
2022-08-27T09:26:08.103Z,20.03
2022-08-27T09:27:08.225Z,20.02
2022-08-27T09:28:07.957Z,20.05
2022-08-27T09:29:07.631Z,20.05
2022-08-27T09:30:08.211Z,20.04
2022-08-27T09:31:07.936Z,20.05
2022-08-27T09:32:07.807Z,20.04
2022-08-27T09:33:08.068Z,20.06
2022-08-27T09:34:08.297Z,20.04
2022-08-27T09:35:07.652Z,20.03
2022-08-27T09:36:08.112Z,20.02
2022-08-27T09:37:08.144Z,20.01
2022-08-27T09:38:08.525Z,19.98
2022-08-27T09:39:08.280Z,19.90
2022-08-27T09:40:13.639Z,19.85
2022-08-27T09:41:08.008Z,19.79
2022-08-27T09:42:08.157Z,19.77
2022-08-27T09:43:08.473Z,19.72
2022-08-27T09:44:07.861Z,19.69
2022-08-27T09:45:09.071Z,19.62
2022-08-27T09:46:08.139Z,19.59
2022-08-27T09:47:07.918Z,19.54
2022-08-27T09:48:08.379Z,19.54
2022-08-27T09:49:08.024Z,19.51
2022-08-27T09:50:07.911Z,19.48
2022-08-27T09:51:08.251Z,19.45
2022-08-27T09:52:07.727Z,19.43
2022-08-27T09:53:08.271Z,19.45
2022-08-27T09:54:07.869Z,19.43
2022-08-27T09:55:08.268Z,19.44
2022-08-27T09:56:07.840Z,19.45
2022-08-27T09:57:07.734Z,19.43
2022-08-27T09:58:08.166Z,19.45
2022-08-27T09:59:07.609Z,19.43
2022-08-27T10:00:08.996Z,19.43
2022-08-27T10:01:08.145Z,19.39
2022-08-27T10:02:12.223Z,19.39
2022-08-27T10:03:07.751Z,19.38
2022-08-27T10:04:08.283Z,19.37
2022-08-27T10:05:07.705Z,19.36
2022-08-27T10:06:08.419Z,19.34
2022-08-27T10:07:08.183Z,19.34
2022-08-27T10:08:08.205Z,19.36
2022-08-27T10:09:08.219Z,19.37
2022-08-27T10:10:07.786Z,19.35
2022-08-27T10:11:08.562Z,19.35
2022-08-27T10:12:08.266Z,19.37
2022-08-27T10:13:10.191Z,19.43
2022-08-27T10:14:08.467Z,19.43
2022-08-27T10:15:08.074Z,19.42
2022-08-27T10:16:07.810Z,19.45
2022-08-27T10:17:07.549Z,19.44
2022-08-27T10:18:07.703Z,19.42
2022-08-27T10:19:07.553Z,19.39
2022-08-27T10:20:08.182Z,19.37
2022-08-27T10:21:08.064Z,19.36
2022-08-27T10:22:08.223Z,19.36
2022-08-27T10:23:08.466Z,19.34
2022-08-27T10:24:08.108Z,19.33
2022-08-27T10:25:08.508Z,19.35
2022-08-27T10:26:08.106Z,19.37
2022-08-27T10:27:08.207Z,19.37
2022-08-27T10:28:08.350Z,19.35
2022-08-27T10:29:08.115Z,19.30
2022-08-27T10:30:07.969Z,19.29
2022-08-27T10:31:07.991Z,19.29
2022-08-27T10:32:08.638Z,19.32
2022-08-27T10:33:08.250Z,19.33
2022-08-27T10:34:08.029Z,19.35
2022-08-27T10:35:08.049Z,19.36
2022-08-27T10:36:08.054Z,19.38
2022-08-27T10:37:07.994Z,19.39
2022-08-27T10:38:08.224Z,19.41
2022-08-27T10:39:08.098Z,19.41
2022-08-27T10:40:08.688Z,19.41
2022-08-27T10:41:08.027Z,19.40
2022-08-27T10:42:08.224Z,19.40
2022-08-27T10:43:07.523Z,19.41
2022-08-27T10:44:07.912Z,19.44
2022-08-27T10:45:08.282Z,19.44
2022-08-27T10:46:07.659Z,19.42
2022-08-27T10:47:07.669Z,19.42
2022-08-27T10:48:07.863Z,19.40
2022-08-27T10:49:07.853Z,19.42
2022-08-27T10:50:07.902Z,19.45
2022-08-27T10:51:08.107Z,19.45
2022-08-27T10:52:08.616Z,19.48
2022-08-27T10:53:08.035Z,19.50
2022-08-27T10:54:08.262Z,19.51
2022-08-27T10:55:08.582Z,19.47
2022-08-27T10:56:08.456Z,19.42
2022-08-27T10:57:28.585Z,19.43
2022-08-27T10:58:08.287Z,19.44
2022-08-27T10:59:07.920Z,19.48
2022-08-27T11:00:08.664Z,19.53
2022-08-27T11:01:07.875Z,19.53
2022-08-27T11:02:08.435Z,19.55
2022-08-27T11:03:13.843Z,19.56
2022-08-27T11:04:07.954Z,19.56
2022-08-27T11:05:13.234Z,19.56
2022-08-27T11:06:07.883Z,19.59
2022-08-27T11:07:08.235Z,19.59
2022-08-27T11:08:07.731Z,19.61
2022-08-27T11:09:08.053Z,19.61
2022-08-27T11:10:08.475Z,19.60
2022-08-27T11:11:51.460Z,19.59
2022-08-27T11:12:14.307Z,19.60
2022-08-27T11:13:16.093Z,19.60
2022-08-27T11:14:08.100Z,19.59
2022-08-27T11:15:12.267Z,19.60
2022-08-27T11:16:07.733Z,19.55
2022-08-27T11:17:08.734Z,19.52
2022-08-27T11:18:08.050Z,19.54
2022-08-27T11:19:07.838Z,19.55
2022-08-27T11:20:08.148Z,19.56
2022-08-27T11:21:07.895Z,19.54
2022-08-27T11:22:08.024Z,19.53
2022-08-27T11:23:08.225Z,19.54
2022-08-27T11:24:07.945Z,19.54
2022-08-27T11:25:08.220Z,19.55
2022-08-27T11:26:08.243Z,19.57
2022-08-27T11:27:07.727Z,19.60
2022-08-27T11:28:08.385Z,19.62
2022-08-27T11:29:07.721Z,19.63
2022-08-27T11:30:08.092Z,19.63
2022-08-27T11:31:07.843Z,19.65
2022-08-27T11:32:08.337Z,19.64
2022-08-27T11:33:13.766Z,19.67
2022-08-27T11:34:08.337Z,19.70
2022-08-27T11:35:07.806Z,19.72
2022-08-27T11:36:08.483Z,19.72
2022-08-27T11:37:26.819Z,19.73
2022-08-27T11:38:08.227Z,19.75
2022-08-27T11:39:08.457Z,19.75
2022-08-27T11:40:08.645Z,19.76
2022-08-27T11:41:08.415Z,19.79
2022-08-27T11:42:07.939Z,19.80
2022-08-27T11:43:08.143Z,19.81
2022-08-27T11:44:08.140Z,19.79
2022-08-27T11:45:08.615Z,19.79
2022-08-27T11:46:08.351Z,19.80
2022-08-27T11:47:07.716Z,19.81
2022-08-27T11:48:08.401Z,19.82
2022-08-27T11:49:07.969Z,19.84
2022-08-27T11:50:08.237Z,19.85
2022-08-27T11:51:07.791Z,19.85
2022-08-27T11:52:08.239Z,19.88
2022-08-27T11:53:07.945Z,19.91
2022-08-27T11:54:08.087Z,19.95
2022-08-27T11:55:08.291Z,20.01
2022-08-27T11:56:08.188Z,20.03
2022-08-27T11:57:08.601Z,20.08
2022-08-27T11:58:08.251Z,20.14
2022-08-27T11:59:08.179Z,20.19
2022-08-27T12:00:09.054Z,20.18
2022-08-27T12:01:08.364Z,20.20
2022-08-27T12:02:07.772Z,20.21
2022-08-27T12:03:08.310Z,20.26
2022-08-27T12:04:07.874Z,20.29
2022-08-27T12:05:08.475Z,20.27
2022-08-27T12:06:07.987Z,20.29
2022-08-27T12:07:08.268Z,20.28
2022-08-27T12:08:08.750Z,20.30
2022-08-27T12:09:08.323Z,20.34
2022-08-27T12:10:07.971Z,20.36
2022-08-27T12:11:08.274Z,20.38
2022-08-27T12:12:08.130Z,20.41
2022-08-27T12:13:08.426Z,20.42
2022-08-27T12:14:08.597Z,20.41
2022-08-27T12:15:08.245Z,20.39
2022-08-27T12:16:08.296Z,20.35
2022-08-27T12:17:08.043Z,20.32
2022-08-27T12:18:08.370Z,20.31
2022-08-27T12:19:08.090Z,20.27
2022-08-27T12:20:08.610Z,20.29
2022-08-27T12:21:08.434Z,20.29
2022-08-27T12:22:08.122Z,20.34
2022-08-27T12:23:07.466Z,20.35
2022-08-27T12:24:07.909Z,20.30
2022-08-27T12:25:08.257Z,20.32
2022-08-27T12:26:07.710Z,20.32
2022-08-27T12:27:08.167Z,20.32
2022-08-27T12:28:08.238Z,20.32
2022-08-27T12:29:07.933Z,20.34
2022-08-27T12:30:08.378Z,20.37
2022-08-27T12:31:08.196Z,20.40
2022-08-27T12:32:07.664Z,20.45
2022-08-27T12:33:07.935Z,20.46
2022-08-27T12:34:07.939Z,20.49
2022-08-27T12:35:08.511Z,20.50
2022-08-27T12:36:08.252Z,20.52
2022-08-27T12:37:08.597Z,20.55
2022-08-27T12:38:08.154Z,20.59
2022-08-27T12:39:08.567Z,20.62
2022-08-27T12:40:08.116Z,20.62
2022-08-27T12:41:07.709Z,20.67
2022-08-27T12:42:08.225Z,20.70
2022-08-27T12:43:08.160Z,20.73
2022-08-27T12:44:07.877Z,20.76
2022-08-27T12:45:08.218Z,20.77
2022-08-27T12:46:07.838Z,20.79
2022-08-27T12:47:08.426Z,20.77
2022-08-27T12:48:07.998Z,20.76
2022-08-27T12:49:12.858Z,20.77
2022-08-27T12:50:08.414Z,20.79
2022-08-27T12:51:08.020Z,20.83
2022-08-27T12:52:08.143Z,20.85
2022-08-27T12:53:08.081Z,20.87
2022-08-27T12:54:08.445Z,20.89